Archival Weather

Abadan

Abadan, Iran (OIAA)

Report from: Thursday, September 21, 2023 1:00 AM UTC
Current time: Sunday, February 25, 2024 10:10 PM UTC

Current weather – Weather history – Daily summaries
Weather forecast

Temperature22.0°C (71.6°F)
Dew point6.0°C (42.8°F)
Winds Calm
Clouds Sky clear
Altimeter29.68 in.Hg (1005 mB)
Relative humidity35 %
Density altitude1,232 ft. (375 m)
Remarks Ceiling and visibility OK
Flight conditions Visual Meteorological Conditions
Raw dataOIAA 210100Z 00000KT CAVOK 22/06 Q1005
An error has occurred. This application may no longer respond until reloaded. Reload 🗙